sensor_id;sensor_type;location;lat;lon;timestamp;temperature;humidity
32753;DHT22;19121;52.428;10.816;2024-01-25T00:01:08;19.00;43.50
32753;DHT22;19121;52.428;10.816;2024-01-25T00:03:34;18.90;43.40
32753;DHT22;19121;52.428;10.816;2024-01-25T00:05:59;18.90;43.40
32753;DHT22;19121;52.428;10.816;2024-01-25T00:08:25;18.90;43.40
32753;DHT22;19121;52.428;10.816;2024-01-25T00:10:50;18.90;43.40
32753;DHT22;19121;52.428;10.816;2024-01-25T00:13:16;18.90;43.40
32753;DHT22;19121;52.428;10.816;2024-01-25T00:15:41;18.90;43.40
32753;DHT22;19121;52.428;10.816;2024-01-25T00:18:07;18.90;43.40
32753;DHT22;19121;52.428;10.816;2024-01-25T00:20:32;18.90;43.40
32753;DHT22;19121;52.428;10.816;2024-01-25T00:22:58;18.90;43.40
32753;DHT22;19121;52.428;10.816;2024-01-25T00:25:23;18.90;43.40
32753;DHT22;19121;52.428;10.816;2024-01-25T00:27:49;18.90;43.40
32753;DHT22;19121;52.428;10.816;2024-01-25T00:30:14;18.80;43.40
32753;DHT22;19121;52.428;10.816;2024-01-25T00:32:40;18.90;43.40
32753;DHT22;19121;52.428;10.816;2024-01-25T00:35:05;18.80;43.40
32753;DHT22;19121;52.428;10.816;2024-01-25T00:37:31;18.90;43.40
32753;DHT22;19121;52.428;10.816;2024-01-25T00:39:57;18.80;43.40
32753;DHT22;19121;52.428;10.816;2024-01-25T00:42:22;18.80;43.40
32753;DHT22;19121;52.428;10.816;2024-01-25T00:44:49;18.80;43.40
32753;DHT22;19121;52.428;10.816;2024-01-25T00:47:14;18.80;43.40
32753;DHT22;19121;52.428;10.816;2024-01-25T00:49:40;18.90;43.40
32753;DHT22;19121;52.428;10.816;2024-01-25T00:52:05;18.80;43.40
32753;DHT22;19121;52.428;10.816;2024-01-25T00:54:31;18.80;43.40
32753;DHT22;19121;52.428;10.816;2024-01-25T00:56:57;18.80;43.40
32753;DHT22;19121;52.428;10.816;2024-01-25T00:59:22;18.80;43.40
32753;DHT22;19121;52.428;10.816;2024-01-25T01:01:48;18.80;43.40
32753;DHT22;19121;52.428;10.816;2024-01-25T01:04:17;18.80;43.40
32753;DHT22;19121;52.428;10.816;2024-01-25T01:06:42;18.80;43.40
32753;DHT22;19121;52.428;10.816;2024-01-25T01:09:08;18.80;43.40
32753;DHT22;19121;52.428;10.816;2024-01-25T01:11:34;18.80;43.40
32753;DHT22;19121;52.428;10.816;2024-01-25T01:13:59;18.80;44.00
32753;DHT22;19121;52.428;10.816;2024-01-25T01:16:25;18.80;43.50
32753;DHT22;19121;52.428;10.816;2024-01-25T01:18:51;18.80;43.40
32753;DHT22;19121;52.428;10.816;2024-01-25T01:21:16;18.70;43.40
32753;DHT22;19121;52.428;10.816;2024-01-25T01:23:42;18.80;43.40
32753;DHT22;19121;52.428;10.816;2024-01-25T01:26:07;18.70;43.40
32753;DHT22;19121;52.428;10.816;2024-01-25T01:28:33;18.70;43.40
32753;DHT22;19121;52.428;10.816;2024-01-25T01:31:01;18.70;43.40
32753;DHT22;19121;52.428;10.816;2024-01-25T01:33:27;18.70;43.40
32753;DHT22;19121;52.428;10.816;2024-01-25T01:35:53;18.70;43.40
32753;DHT22;19121;52.428;10.816;2024-01-25T01:38:18;18.70;43.40
32753;DHT22;19121;52.428;10.816;2024-01-25T01:40:44;18.70;43.40
32753;DHT22;19121;52.428;10.816;2024-01-25T01:43:17;18.70;43.40
32753;DHT22;19121;52.428;10.816;2024-01-25T01:45:42;18.70;43.40
32753;DHT22;19121;52.428;10.816;2024-01-25T01:48:08;18.70;43.40
32753;DHT22;19121;52.428;10.816;2024-01-25T01:50:33;18.70;43.40
32753;DHT22;19121;52.428;10.816;2024-01-25T01:52:59;18.70;43.40
32753;DHT22;19121;52.428;10.816;2024-01-25T01:55:24;18.70;43.40
32753;DHT22;19121;52.428;10.816;2024-01-25T01:57:50;18.70;43.40
32753;DHT22;19121;52.428;10.816;2024-01-25T02:00:16;18.70;43.40
32753;DHT22;19121;52.428;10.816;2024-01-25T02:02:44;18.70;43.40
32753;DHT22;19121;52.428;10.816;2024-01-25T02:05:10;18.70;43.40
32753;DHT22;19121;52.428;10.816;2024-01-25T02:07:36;18.70;43.40
32753;DHT22;19121;52.428;10.816;2024-01-25T02:10:03;18.70;43.40
32753;DHT22;19121;52.428;10.816;2024-01-25T02:12:28;18.70;43.40
32753;DHT22;19121;52.428;10.816;2024-01-25T02:14:55;18.70;43.40
32753;DHT22;19121;52.428;10.816;2024-01-25T02:17:20;18.70;43.40
32753;DHT22;19121;52.428;10.816;2024-01-25T02:19:46;18.70;43.40
32753;DHT22;19121;52.428;10.816;2024-01-25T02:22:14;18.70;43.40
32753;DHT22;19121;52.428;10.816;2024-01-25T02:24:40;18.60;43.40
32753;DHT22;19121;52.428;10.816;2024-01-25T02:27:05;18.70;43.40
32753;DHT22;19121;52.428;10.816;2024-01-25T02:29:31;18.70;43.40
32753;DHT22;19121;52.428;10.816;2024-01-25T02:31:56;18.60;43.40
32753;DHT22;19121;52.428;10.816;2024-01-25T02:34:22;18.60;43.40
32753;DHT22;19121;52.428;10.816;2024-01-25T02:36:47;18.60;43.40
32753;DHT22;19121;52.428;10.816;2024-01-25T02:39:13;18.60;44.00
32753;DHT22;19121;52.428;10.816;2024-01-25T02:41:38;18.60;43.40
32753;DHT22;19121;52.428;10.816;2024-01-25T02:44:04;18.60;43.40
32753;DHT22;19121;52.428;10.816;2024-01-25T02:46:29;18.60;43.40
32753;DHT22;19121;52.428;10.816;2024-01-25T02:48:55;18.60;43.40
32753;DHT22;19121;52.428;10.816;2024-01-25T02:51:20;18.60;43.40
32753;DHT22;19121;52.428;10.816;2024-01-25T02:53:46;18.60;43.40
32753;DHT22;19121;52.428;10.816;2024-01-25T02:56:11;18.60;43.40
32753;DHT22;19121;52.428;10.816;2024-01-25T02:58:37;18.60;43.40
32753;DHT22;19121;52.428;10.816;2024-01-25T03:01:02;18.60;43.40
32753;DHT22;19121;52.428;10.816;2024-01-25T03:03:28;18.60;43.40
32753;DHT22;19121;52.428;10.816;2024-01-25T03:05:53;18.60;43.40
32753;DHT22;19121;52.428;10.816;2024-01-25T03:08:19;18.60;43.40
32753;DHT22;19121;52.428;10.816;2024-01-25T03:10:45;18.60;43.40
32753;DHT22;19121;52.428;10.816;2024-01-25T03:13:11;18.60;43.40
32753;DHT22;19121;52.428;10.816;2024-01-25T03:15:36;18.60;43.40
32753;DHT22;19121;52.428;10.816;2024-01-25T03:18:02;18.60;43.40
32753;DHT22;19121;52.428;10.816;2024-01-25T03:20:28;18.60;43.30
32753;DHT22;19121;52.428;10.816;2024-01-25T03:22:53;18.60;43.20
32753;DHT22;19121;52.428;10.816;2024-01-25T03:25:19;18.60;43.20
32753;DHT22;19121;52.428;10.816;2024-01-25T03:27:45;18.70;43.20
32753;DHT22;19121;52.428;10.816;2024-01-25T03:30:10;18.70;43.20
32753;DHT22;19121;52.428;10.816;2024-01-25T03:32:36;18.70;43.10
32753;DHT22;19121;52.428;10.816;2024-01-25T03:35:01;18.70;43.10
32753;DHT22;19121;52.428;10.816;2024-01-25T03:37:27;18.70;43.10
32753;DHT22;19121;52.428;10.816;2024-01-25T03:39:52;18.70;43.00
32753;DHT22;19121;52.428;10.816;2024-01-25T03:42:18;18.80;43.00
32753;DHT22;19121;52.428;10.816;2024-01-25T03:44:43;18.80;43.00
32753;DHT22;19121;52.428;10.816;2024-01-25T03:47:10;18.80;43.00
32753;DHT22;19121;52.428;10.816;2024-01-25T03:49:36;18.80;43.00
32753;DHT22;19121;52.428;10.816;2024-01-25T03:52:01;18.80;42.90
32753;DHT22;19121;52.428;10.816;2024-01-25T03:54:28;18.80;42.90
32753;DHT22;19121;52.428;10.816;2024-01-25T03:56:53;18.90;43.00
32753;DHT22;19121;52.428;10.816;2024-01-25T03:59:18;18.90;42.90
32753;DHT22;19121;52.428;10.816;2024-01-25T04:01:44;18.90;42.90
32753;DHT22;19121;52.428;10.816;2024-01-25T04:04:10;18.90;42.90
32753;DHT22;19121;52.428;10.816;2024-01-25T04:06:38;18.90;42.90
32753;DHT22;19121;52.428;10.816;2024-01-25T04:09:03;18.90;42.90
32753;DHT22;19121;52.428;10.816;2024-01-25T04:11:29;18.90;42.90
32753;DHT22;19121;52.428;10.816;2024-01-25T04:13:54;18.90;42.90
32753;DHT22;19121;52.428;10.816;2024-01-25T04:16:20;18.90;42.90
32753;DHT22;19121;52.428;10.816;2024-01-25T04:18:45;18.90;42.90
32753;DHT22;19121;52.428;10.816;2024-01-25T04:21:11;18.90;42.90
32753;DHT22;19121;52.428;10.816;2024-01-25T04:23:36;18.90;42.90
32753;DHT22;19121;52.428;10.816;2024-01-25T04:26:01;18.90;42.90
32753;DHT22;19121;52.428;10.816;2024-01-25T04:28:27;18.90;42.90
32753;DHT22;19121;52.428;10.816;2024-01-25T04:30:52;18.90;42.90
32753;DHT22;19121;52.428;10.816;2024-01-25T04:33:18;18.90;42.90
32753;DHT22;19121;52.428;10.816;2024-01-25T04:35:43;18.90;42.80
32753;DHT22;19121;52.428;10.816;2024-01-25T04:38:09;18.90;42.80
32753;DHT22;19121;52.428;10.816;2024-01-25T04:40:35;19.00;42.80
32753;DHT22;19121;52.428;10.816;2024-01-25T04:43:00;18.90;42.80
32753;DHT22;19121;52.428;10.816;2024-01-25T04:45:25;19.00;42.80
32753;DHT22;19121;52.428;10.816;2024-01-25T04:47:51;19.00;42.80
32753;DHT22;19121;52.428;10.816;2024-01-25T04:50:16;19.00;42.80
32753;DHT22;19121;52.428;10.816;2024-01-25T04:52:42;19.00;42.80
32753;DHT22;19121;52.428;10.816;2024-01-25T04:55:08;19.00;42.80
32753;DHT22;19121;52.428;10.816;2024-01-25T04:57:33;19.00;42.80
32753;DHT22;19121;52.428;10.816;2024-01-25T04:59:59;19.00;42.80
32753;DHT22;19121;52.428;10.816;2024-01-25T05:02:24;19.00;42.80
32753;DHT22;19121;52.428;10.816;2024-01-25T05:04:50;19.10;42.80
32753;DHT22;19121;52.428;10.816;2024-01-25T05:07:15;19.00;42.70
32753;DHT22;19121;52.428;10.816;2024-01-25T05:09:41;19.00;42.70
32753;DHT22;19121;52.428;10.816;2024-01-25T05:12:06;19.10;42.80
32753;DHT22;19121;52.428;10.816;2024-01-25T05:14:32;19.00;42.70
32753;DHT22;19121;52.428;10.816;2024-01-25T05:16:57;19.10;42.70
32753;DHT22;19121;52.428;10.816;2024-01-25T05:19:23;19.10;42.70
32753;DHT22;19121;52.428;10.816;2024-01-25T05:21:49;19.10;42.70
32753;DHT22;19121;52.428;10.816;2024-01-25T05:24:15;19.10;42.70
32753;DHT22;19121;52.428;10.816;2024-01-25T05:26:40;19.10;42.70
32753;DHT22;19121;52.428;10.816;2024-01-25T05:29:06;19.10;42.70
32753;DHT22;19121;52.428;10.816;2024-01-25T05:31:31;19.10;42.70
32753;DHT22;19121;52.428;10.816;2024-01-25T05:33:56;19.10;42.70
32753;DHT22;19121;52.428;10.816;2024-01-25T05:36:22;19.10;42.70
32753;DHT22;19121;52.428;10.816;2024-01-25T05:38:47;19.10;42.70
32753;DHT22;19121;52.428;10.816;2024-01-25T05:41:13;19.10;42.70
32753;DHT22;19121;52.428;10.816;2024-01-25T05:43:38;19.10;42.70
32753;DHT22;19121;52.428;10.816;2024-01-25T05:46:04;19.10;42.60
32753;DHT22;19121;52.428;10.816;2024-01-25T05:48:29;19.10;42.60
32753;DHT22;19121;52.428;10.816;2024-01-25T05:50:55;19.10;42.70
32753;DHT22;19121;52.428;10.816;2024-01-25T05:53:20;19.10;42.60
32753;DHT22;19121;52.428;10.816;2024-01-25T05:55:46;19.10;42.60
32753;DHT22;19121;52.428;10.816;2024-01-25T05:58:12;19.10;42.60
32753;DHT22;19121;52.428;10.816;2024-01-25T06:00:37;19.10;42.60
32753;DHT22;19121;52.428;10.816;2024-01-25T06:03:04;19.10;42.60
32753;DHT22;19121;52.428;10.816;2024-01-25T06:05:30;19.10;42.60
32753;DHT22;19121;52.428;10.816;2024-01-25T06:07:55;19.10;42.60
32753;DHT22;19121;52.428;10.816;2024-01-25T06:10:21;19.20;42.60
32753;DHT22;19121;52.428;10.816;2024-01-25T06:12:47;19.20;42.60
32753;DHT22;19121;52.428;10.816;2024-01-25T06:15:12;19.20;42.60
32753;DHT22;19121;52.428;10.816;2024-01-25T06:17:37;19.20;42.60
32753;DHT22;19121;52.428;10.816;2024-01-25T06:20:03;19.20;42.60
32753;DHT22;19121;52.428;10.816;2024-01-25T06:22:30;19.20;42.60
32753;DHT22;19121;52.428;10.816;2024-01-25T06:24:55;19.20;42.60
32753;DHT22;19121;52.428;10.816;2024-01-25T06:27:21;19.20;42.60
32753;DHT22;19121;52.428;10.816;2024-01-25T06:29:46;19.20;42.50
32753;DHT22;19121;52.428;10.816;2024-01-25T06:32:12;19.20;42.50
32753;DHT22;19121;52.428;10.816;2024-01-25T06:34:37;19.20;42.50
32753;DHT22;19121;52.428;10.816;2024-01-25T06:37:03;19.20;42.50
32753;DHT22;19121;52.428;10.816;2024-01-25T06:39:28;19.20;42.50
32753;DHT22;19121;52.428;10.816;2024-01-25T06:41:54;19.20;42.50
32753;DHT22;19121;52.428;10.816;2024-01-25T06:44:20;19.20;42.60
32753;DHT22;19121;52.428;10.816;2024-01-25T06:46:45;19.20;42.50
32753;DHT22;19121;52.428;10.816;2024-01-25T06:49:11;19.20;42.70
32753;DHT22;19121;52.428;10.816;2024-01-25T06:51:36;19.20;42.70
32753;DHT22;19121;52.428;10.816;2024-01-25T06:54:02;19.20;42.70
32753;DHT22;19121;52.428;10.816;2024-01-25T06:56:27;19.20;42.70
32753;DHT22;19121;52.428;10.816;2024-01-25T06:58:53;19.30;42.80
32753;DHT22;19121;52.428;10.816;2024-01-25T07:01:22;19.20;42.70
32753;DHT22;19121;52.428;10.816;2024-01-25T07:03:47;19.30;42.80
32753;DHT22;19121;52.428;10.816;2024-01-25T07:06:13;19.20;42.80
32753;DHT22;19121;52.428;10.816;2024-01-25T07:08:38;19.30;43.40
32753;DHT22;19121;52.428;10.816;2024-01-25T07:11:04;19.30;42.80
32753;DHT22;19121;52.428;10.816;2024-01-25T07:13:29;19.30;42.80
32753;DHT22;19121;52.428;10.816;2024-01-25T07:15:55;19.30;42.80
32753;DHT22;19121;52.428;10.816;2024-01-25T07:18:20;19.30;42.70
32753;DHT22;19121;52.428;10.816;2024-01-25T07:20:46;19.30;42.70
32753;DHT22;19121;52.428;10.816;2024-01-25T07:23:11;19.30;42.80
32753;DHT22;19121;52.428;10.816;2024-01-25T07:25:37;19.30;42.70
32753;DHT22;19121;52.428;10.816;2024-01-25T07:28:02;19.40;42.80
32753;DHT22;19121;52.428;10.816;2024-01-25T07:30:28;19.40;42.80
32753;DHT22;19121;52.428;10.816;2024-01-25T07:32:53;19.40;42.80
32753;DHT22;19121;52.428;10.816;2024-01-25T07:35:19;19.40;42.80
32753;DHT22;19121;52.428;10.816;2024-01-25T07:37:45;19.40;42.90
32753;DHT22;19121;52.428;10.816;2024-01-25T07:40:11;19.40;43.50
32753;DHT22;19121;52.428;10.816;2024-01-25T07:42:36;19.40;44.10
32753;DHT22;19121;52.428;10.816;2024-01-25T07:45:02;19.40;43.20
32753;DHT22;19121;52.428;10.816;2024-01-25T07:47:27;19.40;43.20
32753;DHT22;19121;52.428;10.816;2024-01-25T07:49:53;19.40;43.20
32753;DHT22;19121;52.428;10.816;2024-01-25T07:52:18;19.50;43.20
32753;DHT22;19121;52.428;10.816;2024-01-25T07:54:44;19.50;43.30
32753;DHT22;19121;52.428;10.816;2024-01-25T07:57:10;19.50;43.30
32753;DHT22;19121;52.428;10.816;2024-01-25T07:59:35;19.50;43.40
32753;DHT22;19121;52.428;10.816;2024-01-25T08:02:01;19.50;43.40
32753;DHT22;19121;52.428;10.816;2024-01-25T08:04:26;19.50;43.50
32753;DHT22;19121;52.428;10.816;2024-01-25T08:06:52;19.50;43.50
32753;DHT22;19121;52.428;10.816;2024-01-25T08:09:17;19.50;43.60
32753;DHT22;19121;52.428;10.816;2024-01-25T08:11:44;19.50;43.60
32753;DHT22;19121;52.428;10.816;2024-01-25T08:14:09;19.60;43.70
32753;DHT22;19121;52.428;10.816;2024-01-25T08:16:36;19.60;43.60
32753;DHT22;19121;52.428;10.816;2024-01-25T08:19:02;19.60;43.60
32753;DHT22;19121;52.428;10.816;2024-01-25T08:21:28;19.60;43.60
32753;DHT22;19121;52.428;10.816;2024-01-25T08:23:53;19.60;43.50
32753;DHT22;19121;52.428;10.816;2024-01-25T08:26:19;19.60;43.50
32753;DHT22;19121;52.428;10.816;2024-01-25T08:28:45;19.60;43.50
32753;DHT22;19121;52.428;10.816;2024-01-25T08:31:11;19.60;43.50
32753;DHT22;19121;52.428;10.816;2024-01-25T08:33:38;19.70;43.60
32753;DHT22;19121;52.428;10.816;2024-01-25T08:36:04;19.70;43.60
32753;DHT22;19121;52.428;10.816;2024-01-25T08:38:29;19.70;43.50
32753;DHT22;19121;52.428;10.816;2024-01-25T08:40:55;19.70;43.50
32753;DHT22;19121;52.428;10.816;2024-01-25T08:43:20;19.70;43.50
32753;DHT22;19121;52.428;10.816;2024-01-25T08:45:46;19.70;43.60
32753;DHT22;19121;52.428;10.816;2024-01-25T08:48:12;19.70;43.60
32753;DHT22;19121;52.428;10.816;2024-01-25T08:50:38;19.70;43.60
32753;DHT22;19121;52.428;10.816;2024-01-25T08:53:04;19.70;43.70
32753;DHT22;19121;52.428;10.816;2024-01-25T08:55:30;19.70;43.70
32753;DHT22;19121;52.428;10.816;2024-01-25T08:57:56;19.70;43.70
32753;DHT22;19121;52.428;10.816;2024-01-25T09:00:21;19.70;43.80
32753;DHT22;19121;52.428;10.816;2024-01-25T09:02:47;19.70;43.80
32753;DHT22;19121;52.428;10.816;2024-01-25T09:05:12;19.70;43.80
32753;DHT22;19121;52.428;10.816;2024-01-25T09:07:38;19.80;43.90
32753;DHT22;19121;52.428;10.816;2024-01-25T09:10:04;19.80;43.90
32753;DHT22;19121;52.428;10.816;2024-01-25T09:12:33;19.70;43.90
32753;DHT22;19121;52.428;10.816;2024-01-25T09:15:00;19.80;44.00
32753;DHT22;19121;52.428;10.816;2024-01-25T09:17:25;19.80;44.00
32753;DHT22;19121;52.428;10.816;2024-01-25T09:19:51;19.80;44.00
32753;DHT22;19121;52.428;10.816;2024-01-25T09:22:17;19.80;44.00
32753;DHT22;19121;52.428;10.816;2024-01-25T09:24:44;19.80;44.00
32753;DHT22;19121;52.428;10.816;2024-01-25T09:27:09;19.80;44.00
32753;DHT22;19121;52.428;10.816;2024-01-25T09:29:35;19.80;44.00
32753;DHT22;19121;52.428;10.816;2024-01-25T09:32:01;19.80;44.00
32753;DHT22;19121;52.428;10.816;2024-01-25T09:34:26;19.80;44.00
32753;DHT22;19121;52.428;10.816;2024-01-25T09:36:52;19.80;44.00
32753;DHT22;19121;52.428;10.816;2024-01-25T09:39:17;19.80;44.00
32753;DHT22;19121;52.428;10.816;2024-01-25T09:41:43;19.80;44.00
32753;DHT22;19121;52.428;10.816;2024-01-25T09:44:08;19.80;44.00
32753;DHT22;19121;52.428;10.816;2024-01-25T09:46:34;19.80;44.60
32753;DHT22;19121;52.428;10.816;2024-01-25T09:49:00;19.80;44.00
32753;DHT22;19121;52.428;10.816;2024-01-25T09:51:26;19.80;44.00
32753;DHT22;19121;52.428;10.816;2024-01-25T09:53:52;19.80;44.00
32753;DHT22;19121;52.428;10.816;2024-01-25T09:56:19;19.80;44.00
32753;DHT22;19121;52.428;10.816;2024-01-25T09:58:45;19.80;44.00
32753;DHT22;19121;52.428;10.816;2024-01-25T10:01:12;19.80;44.00
32753;DHT22;19121;52.428;10.816;2024-01-25T10:03:38;19.80;44.00
32753;DHT22;19121;52.428;10.816;2024-01-25T10:06:05;19.80;44.00
32753;DHT22;19121;52.428;10.816;2024-01-25T10:08:31;19.80;44.00
32753;DHT22;19121;52.428;10.816;2024-01-25T10:10:57;19.90;44.00
32753;DHT22;19121;52.428;10.816;2024-01-25T10:13:22;19.80;43.90
32753;DHT22;19121;52.428;10.816;2024-01-25T10:15:48;19.90;44.00
32753;DHT22;19121;52.428;10.816;2024-01-25T10:18:14;19.90;44.00
32753;DHT22;19121;52.428;10.816;2024-01-25T10:20:41;19.90;44.00
32753;DHT22;19121;52.428;10.816;2024-01-25T10:23:07;19.90;43.90
32753;DHT22;19121;52.428;10.816;2024-01-25T10:25:34;19.90;43.90
32753;DHT22;19121;52.428;10.816;2024-01-25T10:27:59;19.90;44.00
32753;DHT22;19121;52.428;10.816;2024-01-25T10:30:25;19.90;44.00
32753;DHT22;19121;52.428;10.816;2024-01-25T10:32:50;19.90;44.00
32753;DHT22;19121;52.428;10.816;2024-01-25T10:35:16;19.90;44.00
32753;DHT22;19121;52.428;10.816;2024-01-25T10:37:42;19.90;43.90
32753;DHT22;19121;52.428;10.816;2024-01-25T10:40:09;19.90;44.00
32753;DHT22;19121;52.428;10.816;2024-01-25T10:42:35;19.90;43.90
32753;DHT22;19121;52.428;10.816;2024-01-25T10:45:00;19.90;43.90
32753;DHT22;19121;52.428;10.816;2024-01-25T10:47:26;19.90;43.90
32753;DHT22;19121;52.428;10.816;2024-01-25T10:49:56;19.90;44.00
32753;DHT22;19121;52.428;10.816;2024-01-25T10:52:22;20.00;44.00
32753;DHT22;19121;52.428;10.816;2024-01-25T10:54:48;19.90;44.00
32753;DHT22;19121;52.428;10.816;2024-01-25T10:57:14;19.90;44.00
32753;DHT22;19121;52.428;10.816;2024-01-25T10:59:39;19.90;44.00
32753;DHT22;19121;52.428;10.816;2024-01-25T11:02:05;19.90;44.10
32753;DHT22;19121;52.428;10.816;2024-01-25T11:04:32;20.00;44.10
32753;DHT22;19121;52.428;10.816;2024-01-25T11:07:07;20.00;44.20
32753;DHT22;19121;52.428;10.816;2024-01-25T11:09:34;20.00;44.10
32753;DHT22;19121;52.428;10.816;2024-01-25T11:12:01;20.00;44.10
32753;DHT22;19121;52.428;10.816;2024-01-25T11:14:26;20.00;44.20
32753;DHT22;19121;52.428;10.816;2024-01-25T11:16:52;20.00;44.10
32753;DHT22;19121;52.428;10.816;2024-01-25T11:19:18;20.00;44.10
32753;DHT22;19121;52.428;10.816;2024-01-25T11:21:47;20.10;44.20
32753;DHT22;19121;52.428;10.816;2024-01-25T11:24:13;20.10;44.20
32753;DHT22;19121;52.428;10.816;2024-01-25T11:26:39;20.10;44.20
32753;DHT22;19121;52.428;10.816;2024-01-25T11:29:04;20.10;44.20
32753;DHT22;19121;52.428;10.816;2024-01-25T11:31:30;20.10;44.20
32753;DHT22;19121;52.428;10.816;2024-01-25T11:33:59;20.10;44.30
32753;DHT22;19121;52.428;10.816;2024-01-25T11:36:25;20.10;44.30
32753;DHT22;19121;52.428;10.816;2024-01-25T11:38:51;20.10;44.30
32753;DHT22;19121;52.428;10.816;2024-01-25T11:41:16;20.10;44.30
32753;DHT22;19121;52.428;10.816;2024-01-25T11:43:41;20.10;44.30
32753;DHT22;19121;52.428;10.816;2024-01-25T11:46:07;20.10;44.30
32753;DHT22;19121;52.428;10.816;2024-01-25T11:48:33;20.10;44.40
32753;DHT22;19121;52.428;10.816;2024-01-25T11:50:59;20.10;44.40
32753;DHT22;19121;52.428;10.816;2024-01-25T11:53:25;20.10;44.50
32753;DHT22;19121;52.428;10.816;2024-01-25T11:55:51;20.10;44.40
32753;DHT22;19121;52.428;10.816;2024-01-25T11:58:16;20.10;44.50
32753;DHT22;19121;52.428;10.816;2024-01-25T12:00:42;20.10;44.40
32753;DHT22;19121;52.428;10.816;2024-01-25T12:03:08;20.10;44.40
32753;DHT22;19121;52.428;10.816;2024-01-25T12:05:34;20.20;44.40
32753;DHT22;19121;52.428;10.816;2024-01-25T12:07:59;20.20;44.60
32753;DHT22;19121;52.428;10.816;2024-01-25T12:10:25;20.20;44.50
32753;DHT22;19121;52.428;10.816;2024-01-25T12:12:52;20.20;44.50
32753;DHT22;19121;52.428;10.816;2024-01-25T12:15:17;20.20;44.40
32753;DHT22;19121;52.428;10.816;2024-01-25T12:17:43;20.20;44.40
32753;DHT22;19121;52.428;10.816;2024-01-25T12:20:09;20.20;44.40
32753;DHT22;19121;52.428;10.816;2024-01-25T12:22:36;20.20;44.40
32753;DHT22;19121;52.428;10.816;2024-01-25T12:25:02;20.20;44.50
32753;DHT22;19121;52.428;10.816;2024-01-25T12:27:28;20.20;44.50
32753;DHT22;19121;52.428;10.816;2024-01-25T12:29:56;20.20;44.50
32753;DHT22;19121;52.428;10.816;2024-01-25T12:32:21;20.20;44.50
32753;DHT22;19121;52.428;10.816;2024-01-25T12:34:56;20.20;44.50
32753;DHT22;19121;52.428;10.816;2024-01-25T12:37:22;20.20;44.40
32753;DHT22;19121;52.428;10.816;2024-01-25T12:39:48;20.20;44.40
32753;DHT22;19121;52.428;10.816;2024-01-25T12:42:14;20.20;44.40
32753;DHT22;19121;52.428;10.816;2024-01-25T12:44:39;20.20;44.50
32753;DHT22;19121;52.428;10.816;2024-01-25T12:47:05;20.20;44.40
32753;DHT22;19121;52.428;10.816;2024-01-25T12:49:32;20.20;44.50
32753;DHT22;19121;52.428;10.816;2024-01-25T12:51:58;20.30;44.50
32753;DHT22;19121;52.428;10.816;2024-01-25T12:54:24;20.20;44.40
32753;DHT22;19121;52.428;10.816;2024-01-25T12:56:50;20.20;44.40
32753;DHT22;19121;52.428;10.816;2024-01-25T12:59:15;20.20;44.40
32753;DHT22;19121;52.428;10.816;2024-01-25T13:01:41;20.20;44.40
32753;DHT22;19121;52.428;10.816;2024-01-25T13:04:07;20.20;44.40
32753;DHT22;19121;52.428;10.816;2024-01-25T13:06:32;20.20;44.40
32753;DHT22;19121;52.428;10.816;2024-01-25T13:08:57;20.20;44.30
32753;DHT22;19121;52.428;10.816;2024-01-25T13:11:23;20.20;44.30
32753;DHT22;19121;52.428;10.816;2024-01-25T13:13:48;20.20;44.30
32753;DHT22;19121;52.428;10.816;2024-01-25T13:16:16;20.20;44.30
32753;DHT22;19121;52.428;10.816;2024-01-25T13:18:41;20.20;44.30
32753;DHT22;19121;52.428;10.816;2024-01-25T13:21:06;20.20;44.30
32753;DHT22;19121;52.428;10.816;2024-01-25T13:23:32;20.20;44.40
32753;DHT22;19121;52.428;10.816;2024-01-25T13:25:57;20.20;44.40
32753;DHT22;19121;52.428;10.816;2024-01-25T13:28:23;20.20;44.40
32753;DHT22;19121;52.428;10.816;2024-01-25T13:30:48;20.20;44.40
32753;DHT22;19121;52.428;10.816;2024-01-25T13:33:14;20.20;44.50
32753;DHT22;19121;52.428;10.816;2024-01-25T13:35:39;20.20;44.50
32753;DHT22;19121;52.428;10.816;2024-01-25T13:38:05;20.20;44.50
32753;DHT22;19121;52.428;10.816;2024-01-25T13:40:30;20.20;44.50
32753;DHT22;19121;52.428;10.816;2024-01-25T13:42:55;20.20;44.50
32753;DHT22;19121;52.428;10.816;2024-01-25T13:45:21;20.20;44.50
32753;DHT22;19121;52.428;10.816;2024-01-25T13:47:47;20.20;44.50
32753;DHT22;19121;52.428;10.816;2024-01-25T13:50:12;20.20;44.50
32753;DHT22;19121;52.428;10.816;2024-01-25T13:52:38;20.20;44.50
32753;DHT22;19121;52.428;10.816;2024-01-25T13:55:03;20.20;44.50
32753;DHT22;19121;52.428;10.816;2024-01-25T13:57:29;20.20;44.50
32753;DHT22;19121;52.428;10.816;2024-01-25T13:59:54;20.20;44.40
32753;DHT22;19121;52.428;10.816;2024-01-25T14:02:20;20.30;44.50
32753;DHT22;19121;52.428;10.816;2024-01-25T14:04:45;20.20;44.40
32753;DHT22;19121;52.428;10.816;2024-01-25T14:07:13;20.30;44.50
32753;DHT22;19121;52.428;10.816;2024-01-25T14:09:38;20.20;44.40
32753;DHT22;19121;52.428;10.816;2024-01-25T14:12:06;20.20;44.40
32753;DHT22;19121;52.428;10.816;2024-01-25T14:14:31;20.20;44.50
32753;DHT22;19121;52.428;10.816;2024-01-25T14:16:57;20.20;44.40
32753;DHT22;19121;52.428;10.816;2024-01-25T14:19:22;20.20;44.50
32753;DHT22;19121;52.428;10.816;2024-01-25T14:21:48;20.20;45.00
32753;DHT22;19121;52.428;10.816;2024-01-25T14:24:14;20.20;44.50
32753;DHT22;19121;52.428;10.816;2024-01-25T14:26:40;20.20;44.50
32753;DHT22;19121;52.428;10.816;2024-01-25T14:29:05;20.20;44.50
32753;DHT22;19121;52.428;10.816;2024-01-25T14:31:30;20.20;44.50
32753;DHT22;19121;52.428;10.816;2024-01-25T14:33:56;20.30;44.60
32753;DHT22;19121;52.428;10.816;2024-01-25T14:36:21;20.20;44.60
32753;DHT22;19121;52.428;10.816;2024-01-25T14:38:47;20.20;44.60
32753;DHT22;19121;52.428;10.816;2024-01-25T14:41:12;20.20;44.60
32753;DHT22;19121;52.428;10.816;2024-01-25T14:43:38;20.20;44.50
32753;DHT22;19121;52.428;10.816;2024-01-25T14:46:07;20.20;44.60
32753;DHT22;19121;52.428;10.816;2024-01-25T14:48:32;20.20;44.60
32753;DHT22;19121;52.428;10.816;2024-01-25T14:50:58;20.20;44.60
32753;DHT22;19121;52.428;10.816;2024-01-25T14:53:23;20.20;44.60
32753;DHT22;19121;52.428;10.816;2024-01-25T14:55:49;20.20;44.70
32753;DHT22;19121;52.428;10.816;2024-01-25T14:58:15;20.20;44.60
32753;DHT22;19121;52.428;10.816;2024-01-25T15:00:50;20.20;44.50
32753;DHT22;19121;52.428;10.816;2024-01-25T15:03:16;20.20;44.60
32753;DHT22;19121;52.428;10.816;2024-01-25T15:05:41;20.20;44.60